createdAt,value
2023-04-29T00:01:45.700Z,99487.09
2023-04-29T00:04:14.402Z,99484.03
2023-04-29T00:06:42.194Z,99479.63
2023-04-29T00:09:09.937Z,99475.88
2023-04-29T00:11:37.312Z,99476.31
2023-04-29T00:14:04.807Z,99473.25
2023-04-29T00:16:32.208Z,99462.88
2023-04-29T00:19:00.200Z,99460.56
2023-04-29T00:21:27.788Z,99463.19
2023-04-29T00:23:55.519Z,99459.47
2023-04-29T00:26:23.020Z,99457.59
2023-04-29T00:28:50.722Z,99460.78
2023-04-29T00:31:18.454Z,99466.50
2023-04-29T00:33:47.037Z,99459.59
2023-04-29T00:36:14.724Z,99466.31
2023-04-29T00:38:42.415Z,99476.19
2023-04-29T00:41:10.216Z,99477.63
2023-04-29T00:43:37.727Z,99480.78
2023-04-29T00:46:05.146Z,99476.38
2023-04-29T00:48:33.431Z,99481.63
2023-04-29T00:51:01.423Z,99477.72
2023-04-29T00:53:29.219Z,99478.94
2023-04-29T00:55:57.115Z,99482.25
2023-04-29T00:58:30.737Z,99478.19
2023-04-29T01:00:58.735Z,99478.84
2023-04-29T01:03:26.897Z,99478.19
2023-04-29T01:06:03.228Z,99478.84
2023-04-29T01:08:37.123Z,99489.50
2023-04-29T01:11:11.723Z,99489.81
2023-04-29T01:13:47.227Z,99488.72
2023-04-29T01:16:38.818Z,99486.53
2023-04-29T01:19:45.888Z,99480.81
2023-04-29T01:22:14.730Z,99479.84
2023-04-29T01:24:42.447Z,99480.22
2023-04-29T01:27:33.238Z,99471.94
2023-04-29T01:30:24.980Z,99476.91
2023-04-29T01:32:52.799Z,99477.56
2023-04-29T01:35:35.079Z,99469.66
2023-04-29T01:38:12.240Z,99469.00
2023-04-29T01:40:50.274Z,99472.03
2023-04-29T01:43:18.761Z,99465.13
2023-04-29T01:45:45.937Z,99464.81
2023-04-29T01:48:13.767Z,99457.69
2023-04-29T01:50:41.341Z,99454.69
2023-04-29T01:53:09.255Z,99453.97
2023-04-29T01:55:37.009Z,99457.25
2023-04-29T01:58:04.384Z,99463.72
2023-04-29T02:00:32.214Z,99461.50
2023-04-29T02:02:59.907Z,99464.59
2023-04-29T02:05:27.250Z,99458.47
2023-04-29T02:07:55.102Z,99456.25
2023-04-29T02:10:22.595Z,99451.66
2023-04-29T02:12:50.029Z,99455.72
2023-04-29T02:15:18.261Z,99462.19
2023-04-29T02:17:46.991Z,99459.13
2023-04-29T02:20:14.483Z,99463.28
2023-04-29T02:22:43.017Z,99458.47
2023-04-29T02:25:11.553Z,99458.88
2023-04-29T02:27:39.270Z,99453.19
2023-04-29T02:30:07.497Z,99454.28
2023-04-29T02:32:36.169Z,99449.44
2023-04-29T02:35:04.276Z,99460.41
2023-04-29T02:37:32.129Z,99449.88
2023-04-29T02:39:59.793Z,99448.78
2023-04-29T02:42:27.163Z,99449.56
2023-04-29T02:44:55.036Z,99448.78
2023-04-29T02:47:22.807Z,99439.00
2023-04-29T02:49:51.120Z,99445.78
2023-04-29T02:52:19.226Z,99444.38
2023-04-29T02:54:47.041Z,99440.53
2023-04-29T02:57:14.412Z,99440.44
2023-04-29T02:59:42.241Z,99442.66
2023-04-29T03:02:10.143Z,99451.66
2023-04-29T03:04:38.050Z,99452.50
2023-04-29T03:07:05.668Z,99450.28
2023-04-29T03:09:33.524Z,99454.06
2023-04-29T03:12:01.256Z,99457.00
2023-04-29T03:14:29.058Z,99454.38
2023-04-29T03:16:56.887Z,99452.84
2023-04-29T03:19:24.296Z,99454.91
2023-04-29T03:21:53.841Z,99454.91
2023-04-29T03:24:22.059Z,99452.69
2023-04-29T03:26:49.819Z,99450.06
2023-04-29T03:29:17.708Z,99442.94
2023-04-29T03:31:45.328Z,99447.88
2023-04-29T03:34:15.064Z,99447.09
2023-04-29T03:36:42.542Z,99442.94
2023-04-29T03:39:10.168Z,99447.09
2023-04-29T03:41:37.537Z,99454.06
2023-04-29T03:44:05.649Z,99452.41
2023-04-29T03:46:33.325Z,99454.28
2023-04-29T03:49:01.302Z,99456.91
2023-04-29T03:51:30.084Z,99453.97
2023-04-29T03:53:58.282Z,99463.06
2023-04-29T03:56:25.868Z,99470.84
2023-04-29T03:58:53.549Z,99473.59
2023-04-29T04:01:21.260Z,99472.63
2023-04-29T04:03:49.274Z,99475.78
2023-04-29T04:06:16.936Z,99477.75
2023-04-29T04:08:44.558Z,99474.00
2023-04-29T04:11:15.298Z,99478.84
2023-04-29T04:13:43.557Z,99473.50
2023-04-29T04:16:11.882Z,99475.59
2023-04-29T04:18:40.004Z,99472.34
2023-04-29T04:21:09.091Z,99476.84
2023-04-29T04:23:36.845Z,99474.91
2023-04-29T04:26:04.561Z,99477.63
2023-04-29T04:28:32.095Z,99477.19
2023-04-29T04:30:59.569Z,99479.38
2023-04-29T04:33:27.739Z,99481.34
2023-04-29T04:35:55.572Z,99487.03
2023-04-29T04:38:25.856Z,99487.72
2023-04-29T04:40:53.339Z,99481.44
2023-04-29T04:43:21.578Z,99484.63
2023-04-29T04:45:49.153Z,99475.38
2023-04-29T04:48:17.041Z,99477.69
2023-04-29T04:50:44.582Z,99478.88
2023-04-29T04:53:12.116Z,99479.97
2023-04-29T04:55:39.385Z,99469.13
2023-04-29T04:58:06.950Z,99470.75
2023-04-29T05:00:34.316Z,99469.00
2023-04-29T05:03:02.067Z,99466.00
2023-04-29T05:05:29.596Z,99469.38
2023-04-29T05:07:57.309Z,99474.19
2023-04-29T05:10:27.129Z,99477.56
2023-04-29T05:12:54.608Z,99473.16
2023-04-29T05:15:22.315Z,99485.47
2023-04-29T05:17:49.900Z,99476.13
2023-04-29T05:20:17.601Z,99478.19
2023-04-29T05:22:45.604Z,99478.09
2023-04-29T05:25:13.451Z,99479.38
2023-04-29T05:27:40.884Z,99472.31
2023-04-29T05:30:08.974Z,99476.94
2023-04-29T05:32:36.542Z,99480.50
2023-04-29T05:35:06.703Z,99478.97
2023-04-29T05:37:34.887Z,99484.91
2023-04-29T05:40:02.374Z,99480.50
2023-04-29T05:42:30.617Z,99480.16
2023-04-29T05:44:58.149Z,99477.94
2023-04-29T05:47:25.437Z,99481.34
2023-04-29T05:49:53.535Z,99486.72
2023-04-29T05:52:21.367Z,99490.72
2023-04-29T05:54:49.156Z,99484.16
2023-04-29T05:57:17.159Z,99492.47
2023-04-29T05:59:44.900Z,99497.50
2023-04-29T06:02:12.842Z,99494.19
2023-04-29T06:04:41.949Z,99497.94
2023-04-29T06:07:09.444Z,99497.28
2023-04-29T06:09:37.172Z,99501.19
2023-04-29T06:12:05.173Z,99509.78
2023-04-29T06:14:32.686Z,99501.69
2023-04-29T06:17:00.646Z,99497.94
2023-04-29T06:19:28.359Z,99498.78
2023-04-29T06:21:55.919Z,99497.69
2023-04-29T06:24:23.653Z,99494.13
2023-04-29T06:26:51.180Z,99503.75
2023-04-29T06:29:18.812Z,99504.94
2023-04-29T06:31:46.430Z,99504.69
2023-04-29T06:34:14.291Z,99508.78
2023-04-29T06:36:41.912Z,99502.31
2023-04-29T06:39:09.392Z,99505.28
2023-04-29T06:41:37.301Z,99508.94
2023-04-29T06:44:04.940Z,99504.84
2023-04-29T06:46:32.869Z,99511.41
2023-04-29T06:49:00.664Z,99508.84
2023-04-29T06:51:29.304Z,99513.19
2023-04-29T06:53:57.026Z,99509.88
2023-04-29T06:56:24.827Z,99507.06
2023-04-29T06:58:52.406Z,99511.25
2023-04-29T07:01:19.995Z,99507.16
2023-04-29T07:03:47.802Z,99512.09
2023-04-29T07:06:16.214Z,99516.31
2023-04-29T07:08:43.385Z,99509.94
2023-04-29T07:11:11.407Z,99514.75
2023-04-29T07:13:39.318Z,99517.03
2023-04-29T07:16:16.283Z,99516.25
2023-04-29T07:18:44.058Z,99511.03
2023-04-29T07:21:11.688Z,99513.44
2023-04-29T07:23:39.416Z,99512.75
2023-04-29T07:26:14.343Z,99504.75
2023-04-29T07:28:42.687Z,99511.75
2023-04-29T07:31:11.116Z,99509.09
2023-04-29T07:33:39.058Z,99510.31
2023-04-29T07:36:07.626Z,99507.53
2023-04-29T07:38:35.330Z,99511.47
2023-04-29T07:41:04.858Z,99512.38
2023-04-29T07:43:32.703Z,99519.03
2023-04-29T07:46:00.724Z,99511.16
2023-04-29T07:48:28.487Z,99515.66
2023-04-29T07:50:56.251Z,99518.59
2023-04-29T07:53:24.084Z,99509.28
2023-04-29T07:55:51.862Z,99511.75
2023-04-29T07:58:19.429Z,99519.03
2023-04-29T08:00:47.434Z,99514.25
2023-04-29T08:03:15.453Z,99516.41
2023-04-29T08:05:43.886Z,99522.16
2023-04-29T08:08:11.421Z,99523.34
2023-04-29T08:10:41.348Z,99527.09
2023-04-29T08:13:09.247Z,99524.69
2023-04-29T08:15:37.096Z,99528.09
2023-04-29T08:18:04.743Z,99529.81
2023-04-29T08:20:32.720Z,99538.75
2023-04-29T08:23:01.261Z,99540.72
2023-04-29T08:25:29.726Z,99529.81
2023-04-29T08:27:58.256Z,99535.00
2023-04-29T08:30:25.982Z,99540.06
2023-04-29T08:32:53.757Z,99539.03
2023-04-29T08:35:21.268Z,99534.38
2023-04-29T08:37:49.112Z,99547.28
2023-04-29T08:40:16.740Z,99547.28
2023-04-29T08:42:47.440Z,99537.41
2023-04-29T08:45:20.997Z,99545.84
2023-04-29T08:47:49.868Z,99545.28
2023-04-29T08:50:18.517Z,99555.16
2023-04-29T08:52:46.377Z,99545.81
2023-04-29T08:55:13.999Z,99549.63
2023-04-29T08:57:42.519Z,99556.44
2023-04-29T09:00:11.016Z,99551.94
2023-04-29T09:02:45.071Z,99554.69
2023-04-29T09:05:12.896Z,99555.38
2023-04-29T09:07:40.739Z,99552.47
2023-04-29T09:10:08.755Z,99556.66
2023-04-29T09:12:36.634Z,99555.66
2023-04-29T09:15:04.630Z,99551.22
2023-04-29T09:17:46.384Z,99560.72
2023-04-29T09:20:23.537Z,99559.03
2023-04-29T09:22:56.290Z,99555.69
2023-04-29T09:25:24.471Z,99558.81
2023-04-29T09:27:52.151Z,99547.94
2023-04-29T09:30:20.141Z,99561.06
2023-04-29T09:33:05.036Z,99561.56
2023-04-29T09:35:32.400Z,99561.06
2023-04-29T09:38:16.779Z,99552.75
2023-04-29T09:40:58.193Z,99558.28
2023-04-29T09:43:26.549Z,99555.44
2023-04-29T09:45:54.214Z,99560.00
2023-04-29T09:48:22.026Z,99556.56
2023-04-29T09:51:02.621Z,99557.41
2023-04-29T09:53:31.915Z,99557.06
2023-04-29T09:56:01.808Z,99553.78
2023-04-29T09:58:31.786Z,99553.44
2023-04-29T10:01:01.410Z,99553.88
2023-04-29T10:03:36.667Z,99554.28
2023-04-29T10:06:05.937Z,99557.31
2023-04-29T10:08:34.563Z,99555.75
2023-04-29T10:11:03.508Z,99550.84
2023-04-29T10:13:32.187Z,99562.63
2023-04-29T10:16:20.614Z,99554.25
2023-04-29T10:19:01.024Z,99550.06
2023-04-29T10:21:33.518Z,99550.47
2023-04-29T10:24:03.416Z,99555.81
2023-04-29T10:26:32.460Z,99541.97
2023-04-29T10:29:01.363Z,99543.44
2023-04-29T10:31:30.663Z,99545.69
2023-04-29T10:33:59.202Z,99540.44
2023-04-29T10:36:28.296Z,99534.50
2023-04-29T10:38:59.334Z,99526.56
2023-04-29T10:41:29.203Z,99525.63
2023-04-29T10:43:56.812Z,99524.59
2023-04-29T10:46:28.678Z,99522.41
2023-04-29T10:49:04.299Z,99520.63
2023-04-29T10:51:43.598Z,99513.47
2023-04-29T10:54:18.235Z,99502.03
2023-04-29T10:56:52.955Z,99493.19
2023-04-29T10:59:43.582Z,99496.03
2023-04-29T11:02:11.353Z,99504.19
2023-04-29T11:05:08.525Z,99498.47
2023-04-29T11:07:36.596Z,99494.47
2023-04-29T11:10:04.452Z,99492.75
2023-04-29T11:12:32.238Z,99492.22
2023-04-29T11:15:03.614Z,99497.56
2023-04-29T11:17:38.911Z,99489.34
2023-04-29T11:20:12.064Z,99495.59
2023-04-29T11:22:40.543Z,99487.72
2023-04-29T11:25:09.842Z,99490.13
2023-04-29T11:27:42.610Z,99489.63
2023-04-29T11:30:10.863Z,99490.66
2023-04-29T11:32:46.103Z,99488.41
2023-04-29T11:35:15.871Z,99493.44
2023-04-29T11:37:45.261Z,99487.94
2023-04-29T11:40:13.586Z,99485.00
2023-04-29T11:42:43.254Z,99491.78
2023-04-29T11:45:11.465Z,99492.75
2023-04-29T11:47:43.651Z,99491.38
2023-04-29T11:50:12.474Z,99491.28
2023-04-29T11:52:41.994Z,99490.94
2023-04-29T11:55:10.470Z,99482.91
2023-04-29T11:57:39.533Z,99480.81
2023-04-29T12:00:14.122Z,99477.19
2023-04-29T12:02:45.635Z,99470.09
2023-04-29T12:05:14.090Z,99476.03
2023-04-29T12:07:42.236Z,99475.66
2023-04-29T12:10:11.401Z,99474.47
2023-04-29T12:12:41.414Z,99479.25
2023-04-29T12:15:10.730Z,99481.38
2023-04-29T12:17:39.352Z,99483.94
2023-04-29T12:20:09.581Z,99471.00
2023-04-29T12:22:37.285Z,99478.66
2023-04-29T12:25:05.117Z,99475.38
2023-04-29T12:27:34.883Z,99474.16
2023-04-29T12:30:02.567Z,99465.88
2023-04-29T12:32:30.323Z,99459.50
2023-04-29T12:34:58.299Z,99461.59
2023-04-29T12:37:26.329Z,99466.34
2023-04-29T12:39:55.572Z,99458.78
2023-04-29T12:42:23.740Z,99451.94
2023-04-29T12:44:51.818Z,99446.69
2023-04-29T12:47:19.656Z,99444.66
2023-04-29T12:49:48.474Z,99432.88
2023-04-29T12:52:16.310Z,99428.19
2023-04-29T12:54:44.402Z,99427.28
2023-04-29T12:57:12.598Z,99430.84
2023-04-29T12:59:43.578Z,99413.22
2023-04-29T13:02:11.307Z,99415.50
2023-04-29T13:04:40.220Z,99414.25
2023-04-29T13:07:08.029Z,99418.16
2023-04-29T13:09:38.419Z,99425.91
2023-04-29T13:12:09.760Z,99423.44
2023-04-29T13:14:37.447Z,99419.84
2023-04-29T13:17:05.227Z,99418.94
2023-04-29T13:19:49.641Z,99411.09
2023-04-29T13:22:19.473Z,99415.22
2023-04-29T13:24:47.703Z,99401.59
2023-04-29T13:27:15.625Z,99416.09
2023-04-29T13:29:43.613Z,99408.91
2023-04-29T13:32:11.705Z,99400.66
2023-04-29T13:34:40.962Z,99408.88
2023-04-29T13:37:08.599Z,99408.53
2023-04-29T13:39:38.372Z,99404.06
2023-04-29T13:42:07.004Z,99402.28
2023-04-29T13:44:49.765Z,99397.09
2023-04-29T13:47:25.174Z,99387.06
2023-04-29T13:50:33.958Z,99394.59
2023-04-29T13:55:49.346Z,99399.69
2023-04-29T13:58:43.609Z,99391.13
2023-04-29T14:01:17.102Z,99385.38
2023-04-29T14:03:36.318Z,99377.13
2023-04-29T14:06:04.221Z,99376.03
2023-04-29T14:08:32.070Z,99373.38
2023-04-29T14:11:00.172Z,99372.94
2023-04-29T14:13:27.617Z,99372.25
2023-04-29T14:15:56.858Z,99366.72
2023-04-29T14:18:24.618Z,99366.31
2023-04-29T14:20:52.391Z,99372.91
2023-04-29T14:23:19.799Z,99363.91
2023-04-29T14:25:47.628Z,99366.75
2023-04-29T14:28:15.630Z,99360.16
2023-04-29T14:30:46.697Z,99350.66
2023-04-29T14:33:14.641Z,99352.31
2023-04-29T14:35:42.629Z,99345.88
2023-04-29T14:38:10.090Z,99356.44
2023-04-29T14:40:39.395Z,99349.50
2023-04-29T14:43:06.976Z,99350.56
2023-04-29T14:45:34.584Z,99342.66
2023-04-29T14:48:02.425Z,99352.81
2023-04-29T14:50:30.305Z,99355.56
2023-04-29T14:52:58.563Z,99361.13
2023-04-29T14:55:26.094Z,99358.72
2023-04-29T14:57:53.981Z,99358.69
2023-04-29T15:00:21.641Z,99361.63
2023-04-29T15:02:51.031Z,99360.81
2023-04-29T15:05:18.799Z,99362.69
2023-04-29T15:07:46.646Z,99361.50
2023-04-29T15:10:14.644Z,99361.16
2023-04-29T15:12:42.647Z,99359.31
2023-04-29T15:15:11.116Z,99357.09
2023-04-29T15:17:39.109Z,99356.63
2023-04-29T15:20:07.872Z,99343.25
2023-04-29T15:22:35.879Z,99346.38
2023-04-29T15:25:03.587Z,99352.41
2023-04-29T15:27:31.004Z,99355.38
2023-04-29T15:29:58.690Z,99351.25
2023-04-29T15:32:31.760Z,99351.91
2023-04-29T15:35:00.661Z,99343.75
2023-04-29T15:37:29.542Z,99347.31
2023-04-29T15:39:59.539Z,99342.84
2023-04-29T15:42:27.434Z,99334.38
2023-04-29T15:44:55.369Z,99333.66
2023-04-29T15:47:23.184Z,99332.28
2023-04-29T15:49:52.432Z,99324.63
2023-04-29T15:52:20.670Z,99325.97
2023-04-29T15:54:48.687Z,99333.38
2023-04-29T15:57:16.670Z,99339.16
2023-04-29T15:59:44.231Z,99334.28
2023-04-29T16:02:12.370Z,99331.19
2023-04-29T16:04:39.616Z,99336.34
2023-04-29T16:07:07.448Z,99334.41
2023-04-29T16:09:35.768Z,99333.78
2023-04-29T16:12:03.906Z,99324.69
2023-04-29T16:14:31.684Z,99322.59
2023-04-29T16:16:59.688Z,99328.06
2023-04-29T16:19:27.458Z,99327.47
2023-04-29T16:21:55.682Z,99323.38
2023-04-29T16:24:23.574Z,99325.03
2023-04-29T16:26:51.691Z,99328.59
2023-04-29T16:29:20.046Z,99313.84
2023-04-29T16:31:47.805Z,99312.72
2023-04-29T16:34:15.754Z,99309.38
2023-04-29T16:36:43.694Z,99320.06
2023-04-29T16:39:11.693Z,99318.97
2023-04-29T16:41:39.696Z,99334.94
2023-04-29T16:44:07.629Z,99334.97
2023-04-29T16:46:36.274Z,99333.13
2023-04-29T16:49:04.465Z,99316.00
2023-04-29T16:51:33.718Z,99321.34
2023-04-29T16:54:01.708Z,99325.91
2023-04-29T16:56:29.721Z,99325.16
2023-04-29T16:58:57.746Z,99332.41
2023-04-29T17:01:25.386Z,99325.16
2023-04-29T17:03:52.766Z,99327.84
2023-04-29T17:06:20.454Z,99331.66
2023-04-29T17:08:50.797Z,99344.97
2023-04-29T17:11:18.814Z,99342.69
2023-04-29T17:13:46.727Z,99336.56
2023-04-29T17:16:15.126Z,99343.41
2023-04-29T17:18:42.793Z,99347.91
2023-04-29T17:21:10.523Z,99347.88
2023-04-29T17:23:38.278Z,99350.84
2023-04-29T17:26:05.891Z,99339.38
2023-04-29T17:28:33.611Z,99344.56
2023-04-29T17:31:02.611Z,99343.72
2023-04-29T17:33:38.783Z,99341.38
2023-04-29T17:36:06.722Z,99345.84
2023-04-29T17:38:34.479Z,99338.56
2023-04-29T17:41:02.648Z,99341.88
2023-04-29T17:43:32.740Z,99341.78
2023-04-29T17:46:00.517Z,99345.06
2023-04-29T17:48:28.289Z,99340.03
2023-04-29T17:50:56.183Z,99332.38
2023-04-29T17:53:24.097Z,99344.72
2023-04-29T17:55:51.736Z,99348.38
2023-04-29T17:58:19.804Z,99342.59
2023-04-29T18:00:48.150Z,99341.38
2023-04-29T18:03:16.180Z,99348.41
2023-04-29T18:05:46.738Z,99351.66
2023-04-29T18:08:14.739Z,99358.72
2023-04-29T18:10:42.740Z,99355.13
2023-04-29T18:13:10.745Z,99355.44
2023-04-29T18:15:38.411Z,99358.34
2023-04-29T18:18:05.796Z,99369.53
2023-04-29T18:20:33.743Z,99367.97
2023-04-29T18:23:01.498Z,99376.13
2023-04-29T18:25:29.060Z,99385.13
2023-04-29T18:28:07.724Z,99381.31
2023-04-29T18:30:40.654Z,99388.06
2023-04-29T18:33:08.697Z,99390.31
2023-04-29T18:35:36.749Z,99383.91
2023-04-29T18:38:04.655Z,99380.06
2023-04-29T18:40:32.661Z,99397.16
2023-04-29T18:43:00.483Z,99391.81
2023-04-29T18:45:27.794Z,99403.78
2023-04-29T18:47:56.080Z,99400.53
2023-04-29T18:50:24.129Z,99405.09
2023-04-29T18:52:51.764Z,99409.19
2023-04-29T18:55:19.757Z,99411.00
2023-04-29T18:57:47.585Z,99415.50
2023-04-29T19:00:16.649Z,99418.09
2023-04-29T19:02:44.793Z,99414.22
2023-04-29T19:05:13.864Z,99418.19
2023-04-29T19:07:41.764Z,99413.94
2023-04-29T19:10:10.521Z,99411.19
2023-04-29T19:12:38.238Z,99410.19
2023-04-29T19:15:07.130Z,99418.31
2023-04-29T19:17:34.680Z,99414.38
2023-04-29T19:20:02.527Z,99411.66
2023-04-29T19:22:30.506Z,99416.56
2023-04-29T19:24:58.512Z,99413.75
2023-04-29T19:27:25.856Z,99420.31
2023-04-29T19:29:53.936Z,99422.59
2023-04-29T19:32:21.776Z,99415.84
2023-04-29T19:34:49.515Z,99424.97
2023-04-29T19:37:16.960Z,99421.59
2023-04-29T19:39:44.866Z,99430.66
2023-04-29T19:42:12.783Z,99429.81
2023-04-29T19:44:40.870Z,99428.56
2023-04-29T19:47:08.796Z,99429.41
2023-04-29T19:49:37.525Z,99430.66
2023-04-29T19:52:06.965Z,99428.00
2023-04-29T19:54:38.178Z,99430.25
2023-04-29T19:57:06.172Z,99437.69
2023-04-29T19:59:33.882Z,99430.72
2023-04-29T20:02:01.729Z,99426.91
2023-04-29T20:04:30.175Z,99433.56
2023-04-29T20:06:57.894Z,99427.84
2023-04-29T20:09:26.748Z,99432.31
2023-04-29T20:11:54.531Z,99434.59
2023-04-29T20:14:22.501Z,99427.47
2023-04-29T20:16:50.085Z,99428.53
2023-04-29T20:19:18.181Z,99427.94
2023-04-29T20:21:45.891Z,99420.28
2023-04-29T20:24:13.745Z,99429.84
2023-04-29T20:26:41.535Z,99427.13
2023-04-29T20:29:09.185Z,99429.25
2023-04-29T20:31:36.690Z,99431.72
2023-04-29T20:34:04.659Z,99434.31
2023-04-29T20:36:31.950Z,99432.59
2023-04-29T20:38:59.903Z,99439.25
2023-04-29T20:41:29.537Z,99435.91
2023-04-29T20:43:58.904Z,99431.41
2023-04-29T20:46:26.812Z,99428.31
2023-04-29T20:48:54.627Z,99429.88
2023-04-29T20:51:22.642Z,99444.81
2023-04-29T20:53:50.773Z,99438.97
2023-04-29T20:56:18.636Z,99438.38
2023-04-29T20:58:46.769Z,99445.88
2023-04-29T21:01:14.921Z,99445.53
2023-04-29T21:03:42.924Z,99444.44
2023-04-29T21:06:10.843Z,99445.88
2023-04-29T21:08:38.573Z,99440.75
2023-04-29T21:11:07.819Z,99443.91
2023-04-29T21:13:35.560Z,99450.81
2023-04-29T21:16:03.894Z,99453.38
2023-04-29T21:18:31.759Z,99453.94
2023-04-29T21:20:59.780Z,99457.88
2023-04-29T21:23:27.404Z,99452.34
2023-04-29T21:25:54.931Z,99448.00
2023-04-29T21:28:22.839Z,99454.91
2023-04-29T21:30:51.234Z,99455.84
2023-04-29T21:33:18.845Z,99452.16
2023-04-29T21:35:51.709Z,99455.66
2023-04-29T21:38:19.566Z,99453.09
2023-04-29T21:40:48.327Z,99456.94
2023-04-29T21:43:16.860Z,99459.97
2023-04-29T21:45:45.057Z,99461.53
2023-04-29T21:48:17.571Z,99457.41
2023-04-29T21:50:46.237Z,99453.59
2023-04-29T21:53:16.393Z,99460.41
2023-04-29T21:55:44.570Z,99464.16
2023-04-29T21:58:12.452Z,99467.66
2023-04-29T22:00:48.010Z,99473.38
2023-04-29T22:03:17.349Z,99470.03
2023-04-29T22:05:44.950Z,99470.88
2023-04-29T22:08:12.434Z,99468.56
2023-04-29T22:10:41.790Z,99466.25
2023-04-29T22:13:09.574Z,99462.97
2023-04-29T22:15:36.889Z,99462.66
2023-04-29T22:18:04.605Z,99462.66
2023-04-29T22:20:32.171Z,99462.00
2023-04-29T22:22:59.959Z,99454.94
2023-04-29T22:25:27.809Z,99455.34
2023-04-29T22:27:55.879Z,99450.75
2023-04-29T22:30:23.577Z,99456.09
2023-04-29T22:32:51.376Z,99454.41
2023-04-29T22:35:19.258Z,99461.25
2023-04-29T22:37:46.869Z,99452.28
2023-04-29T22:40:14.600Z,99468.13
2023-04-29T22:42:43.382Z,99459.00
2023-04-29T22:45:12.582Z,99468.53
2023-04-29T22:47:40.635Z,99473.41
2023-04-29T22:50:08.362Z,99471.88
2023-04-29T22:52:36.607Z,99462.00
2023-04-29T22:55:04.589Z,99468.81
2023-04-29T22:57:32.245Z,99467.28
2023-04-29T23:00:00.022Z,99468.56
2023-04-29T23:02:29.868Z,99469.09
2023-04-29T23:04:58.681Z,99463.03
2023-04-29T23:07:26.385Z,99472.66
2023-04-29T23:09:54.034Z,99470.78
2023-04-29T23:12:21.988Z,99476.47
2023-04-29T23:14:50.993Z,99466.59
2023-04-29T23:17:18.990Z,99472.66
2023-04-29T23:19:46.789Z,99469.56
2023-04-29T23:22:14.604Z,99467.28
2023-04-29T23:24:42.005Z,99458.84
2023-04-29T23:27:09.596Z,99463.38
2023-04-29T23:29:37.294Z,99451.81
2023-04-29T23:32:05.005Z,99453.84
2023-04-29T23:34:32.477Z,99452.47
2023-04-29T23:37:01.584Z,99453.91
2023-04-29T23:39:29.001Z,99448.91
2023-04-29T23:41:57.003Z,99455.56
2023-04-29T23:44:25.602Z,99452.06
2023-04-29T23:46:54.006Z,99455.31
2023-04-29T23:49:21.605Z,99451.06
2023-04-29T23:51:49.308Z,99451.66
2023-04-29T23:54:17.021Z,99449.97
2023-04-29T23:56:44.909Z,99455.72
2023-04-29T23:59:12.400Z,99447.16
